»·PEaware :: UAL404 EGLL-EIDW

UAL404 :: EGLL-EIDW

FLIGHT INFORMATION

Flight Status: Arrived
Operator:
United Airlines
More flights by this operator :: More flights under this callsign
Pilot: Wadhah A. (6578)
Aircraft: AIRBUS A320
(A320)
More flights by this aircraft type
Origin: EGLL Heathrow
United Kingdom
Destination: EIDW Dublin Intl
Ireland
More flights between these airports :: More routes between these airports
Route: CPT L9 KENET N14 DOBEM UN14 MEDOG UL18 LANON L18 ABLIN
File this flight plan on PilotEdge
Remarks:
Altitude:
(Current/Filed)
28,000ft
Speed:
(Current/Filed)
450kts
Departed: 29-Dec-15 11:09 PM
Arrived: 30-Dec-15 12:02 AM
Distance/Time
Traveled:
247nm/0:52
Distance/Time
To Go:
Arrived

Flight Plot

Page will automatically refresh every two minutes.


Map Options




Map Legend


Flown Route
Filed Route
Departure Airport
Arrival Airport
Navaid (VOR, NDB)
Fix

Horizontal Profiles

Position Reports

Time Latitude Longitude Heading Altitude Ground
Speed
29-Dec-15 22:42 51.474064 -0.488348 178 92ft 0kts
29-Dec-15 22:43 51.474064 -0.488348 178 92ft 0kts
29-Dec-15 22:44 51.474064 -0.488348 178 92ft 0kts
29-Dec-15 22:45 51.474064 -0.488348 178 92ft 0kts
29-Dec-15 22:46 51.474064 -0.488348 178 92ft 0kts
29-Dec-15 22:47 51.474064 -0.488348 178 92ft 0kts
29-Dec-15 22:48 51.474064 -0.488348 178 92ft 0kts
29-Dec-15 22:49 51.474064 -0.488348 178 92ft 0kts
29-Dec-15 22:50 51.474064 -0.488348 178 91ft 0kts
29-Dec-15 22:51 51.474064 -0.488348 178 91ft 0kts
29-Dec-15 22:52 51.474294 -0.488358 178 91ft 0kts
29-Dec-15 22:53 51.474555 -0.488057 260 92ft 0kts
29-Dec-15 22:54 51.474527 -0.489197 326 91ft 0kts
29-Dec-15 22:55 51.474527 -0.489197 326 91ft 0kts
29-Dec-15 22:56 51.474527 -0.489197 326 91ft 0kts
29-Dec-15 22:57 51.474527 -0.489197 326 91ft 0kts
29-Dec-15 22:58 51.474527 -0.489197 326 91ft 0kts
29-Dec-15 22:59 51.474864 -0.489387 345 91ft 0kts
29-Dec-15 23:00 51.475597 -0.489888 335 91ft 0kts
29-Dec-15 23:01 51.475603 -0.489892 335 91ft 0kts
29-Dec-15 23:02 51.475603 -0.489892 335 91ft 0kts
29-Dec-15 23:03 51.475603 -0.489892 335 91ft 0kts
29-Dec-15 23:04 51.476585 -0.490460 356 91ft 12kts
29-Dec-15 23:05 51.477711 -0.465688 90 174ft 172kts
29-Dec-15 23:06 51.475278 -0.383783 122 2101ft 246kts
29-Dec-15 23:07 51.416976 -0.383293 227 5743ft 242kts
29-Dec-15 23:08 51.416065 -0.494222 269 8921ft 266kts
29-Dec-15 23:09 51.426425 -0.617326 271 10882ft 328kts
29-Dec-15 23:10 51.439403 -0.759407 272 14452ft 337kts
29-Dec-15 23:11 51.455459 -0.904695 273 17320ft 353kts
29-Dec-15 23:12 51.473289 -1.061178 273 19698ft 367kts
29-Dec-15 23:13 51.491983 -1.222523 273 21768ft 379kts
29-Dec-15 23:14 51.511819 -1.383355 274 23751ft 392kts
29-Dec-15 23:15 51.547868 -1.552525 286 25749ft 416kts
29-Dec-15 23:16 51.591163 -1.708982 286 27309ft 427kts
29-Dec-15 23:17 51.638809 -1.882146 285 28842ft 433kts
29-Dec-15 23:18 51.686934 -2.058428 285 30358ft 433kts
29-Dec-15 23:19 51.733396 -2.229518 284 31768ft 425kts
29-Dec-15 23:20 51.778268 -2.396869 283 31794ft 427kts
29-Dec-15 23:21 51.820759 -2.568924 274 31792ft 415kts
29-Dec-15 23:22 51.845533 -2.749724 274 31777ft 414kts
29-Dec-15 23:23 51.870002 -2.931230 273 31777ft 413kts
29-Dec-15 23:24 51.892955 -3.106920 271 31777ft 407kts
29-Dec-15 23:25 51.915767 -3.279008 271 31778ft 406kts
29-Dec-15 23:26 51.938430 -3.456255 271 31747ft 407kts
29-Dec-15 23:27 51.992736 -3.619261 302 31642ft 453kts
29-Dec-15 23:28 52.079080 -3.767223 302 31642ft 454kts
29-Dec-15 23:29 52.166328 -3.915876 302 31642ft 455kts
29-Dec-15 23:30 52.249297 -4.058090 301 31540ft 455kts
29-Dec-15 23:31 52.334491 -4.203911 300 31546ft 454kts
29-Dec-15 23:32 52.417063 -4.346963 300 31559ft 454kts
29-Dec-15 23:33 52.501164 -4.494753 300 31581ft 454kts
29-Dec-15 23:34 52.581925 -4.636461 300 31554ft 454kts
29-Dec-15 23:35 52.666603 -4.785978 299 31107ft 455kts
29-Dec-15 23:36 52.748774 -4.932253 299 29776ft 458kts
29-Dec-15 23:37 52.850906 -5.053581 319 27137ft 489kts
29-Dec-15 23:38 52.965243 -5.156507 319 24199ft 481kts
29-Dec-15 23:39 53.076286 -5.257186 319 21371ft 449kts
29-Dec-15 23:40 53.182753 -5.354477 320 18643ft 437kts
29-Dec-15 23:41 53.280392 -5.444175 321 16122ft 428kts
29-Dec-15 23:42 53.381457 -5.537487 322 13499ft 413kts
29-Dec-15 23:43 53.478492 -5.627580 323 10998ft 397kts
29-Dec-15 23:44 53.564208 -5.707074 324 9671ft 366kts
29-Dec-15 23:45 53.629544 -5.791769 273 8598ft 270kts
29-Dec-15 23:46 53.640875 -5.905979 269 7511ft 261kts
29-Dec-15 23:47 53.651981 -6.025928 270 6287ft 259kts
29-Dec-15 23:48 53.662516 -6.141280 270 5162ft 246kts
29-Dec-15 23:49 53.672321 -6.248805 269 4096ft 217kts
29-Dec-15 23:50 53.660767 -6.327622 227 3561ft 181kts
29-Dec-15 23:51 53.634111 -6.388342 231 3209ft 157kts
29-Dec-15 23:52 53.600874 -6.389296 149 3185ft 163kts
29-Dec-15 23:53 53.563634 -6.354761 161 2954ft 149kts
29-Dec-15 23:54 53.527754 -6.327927 164 2206ft 144kts
29-Dec-15 23:55 53.491495 -6.301582 164 1431ft 142kts
29-Dec-15 23:56 53.456576 -6.276276 163 677ft 133kts
29-Dec-15 23:57 53.425599 -6.253965 156 250ft 59kts
29-Dec-15 23:58 53.423204 -6.248129 53 250ft 0kts
29-Dec-15 23:59 53.423005 -6.246112 150 251ft 0kts
30-Dec-15 00:00 53.423005 -6.246112 150 251ft 0kts
30-Dec-15 00:01 53.423005 -6.246112 150 251ft 0kts
30-Dec-15 00:02 53.423005 -6.246112 150 251ft 0kts
30-Dec-15 00:03 53.453844 -6.274288 166 641ft 132kts
30-Dec-15 00:04 53.441476 -6.264973 162 388ft 132kts
30-Dec-15 00:05 53.461787 -6.280046 161 805ft 132kts
30-Dec-15 00:06 53.446205 -6.268381 162 478ft 134kts
30-Dec-15 00:07 53.423005 -6.246112 150 251ft 0kts
30-Dec-15 00:08 53.423005 -6.246112 150 251ft 0kts
30-Dec-15 00:09 53.423005 -6.246112 150 251ft 0kts
30-Dec-15 00:10 53.425368 -6.249907 332 251ft 84kts
30-Dec-15 00:11 53.471253 -6.277432 311 2329ft 191kts
30-Dec-15 00:12 53.494135 -6.357723 255 4477ft 204kts

Navigation Log

Ident Type
Flight plan parsing failed, navigation log unavailable